sensor_id;sensor_type;location;lat;lon;timestamp;P1;durP1;ratioP1;P2;durP2;ratioP2
19231;SDS011;9750;48.730;10.294;2024-01-15T00:02:04;27.43;;;15.20;;
19231;SDS011;9750;48.730;10.294;2024-01-15T00:04:35;27.33;;;14.67;;
19231;SDS011;9750;48.730;10.294;2024-01-15T00:07:03;26.97;;;15.87;;
19231;SDS011;9750;48.730;10.294;2024-01-15T00:09:31;25.13;;;14.43;;
19231;SDS011;9750;48.730;10.294;2024-01-15T00:11:58;24.90;;;14.80;;
19231;SDS011;9750;48.730;10.294;2024-01-15T00:14:26;26.87;;;14.47;;
19231;SDS011;9750;48.730;10.294;2024-01-15T00:16:55;22.90;;;14.27;;
19231;SDS011;9750;48.730;10.294;2024-01-15T00:19:22;27.70;;;14.10;;
19231;SDS011;9750;48.730;10.294;2024-01-15T00:21:50;26.70;;;14.40;;
19231;SDS011;9750;48.730;10.294;2024-01-15T00:24:17;25.33;;;13.47;;
19231;SDS011;9750;48.730;10.294;2024-01-15T00:26:44;24.50;;;13.80;;
19231;SDS011;9750;48.730;10.294;2024-01-15T00:29:11;23.30;;;13.20;;
19231;SDS011;9750;48.730;10.294;2024-01-15T00:31:39;21.27;;;12.47;;
19231;SDS011;9750;48.730;10.294;2024-01-15T00:34:07;22.90;;;12.63;;
19231;SDS011;9750;48.730;10.294;2024-01-15T00:36:35;22.63;;;12.03;;
19231;SDS011;9750;48.730;10.294;2024-01-15T00:39:02;23.43;;;12.73;;
19231;SDS011;9750;48.730;10.294;2024-01-15T00:41:30;22.37;;;13.10;;
19231;SDS011;9750;48.730;10.294;2024-01-15T00:43:57;19.80;;;12.57;;
19231;SDS011;9750;48.730;10.294;2024-01-15T00:46:24;20.60;;;11.43;;
19231;SDS011;9750;48.730;10.294;2024-01-15T00:48:52;18.40;;;11.33;;
19231;SDS011;9750;48.730;10.294;2024-01-15T00:51:20;21.43;;;12.73;;
19231;SDS011;9750;48.730;10.294;2024-01-15T00:53:48;20.33;;;11.90;;
19231;SDS011;9750;48.730;10.294;2024-01-15T00:56:15;20.17;;;11.13;;
19231;SDS011;9750;48.730;10.294;2024-01-15T00:58:44;19.30;;;11.07;;
19231;SDS011;9750;48.730;10.294;2024-01-15T01:01:11;19.53;;;12.20;;
19231;SDS011;9750;48.730;10.294;2024-01-15T01:03:38;18.23;;;11.00;;
19231;SDS011;9750;48.730;10.294;2024-01-15T01:06:05;20.83;;;11.63;;
19231;SDS011;9750;48.730;10.294;2024-01-15T01:08:34;17.33;;;11.07;;
19231;SDS011;9750;48.730;10.294;2024-01-15T01:11:01;19.00;;;11.87;;
19231;SDS011;9750;48.730;10.294;2024-01-15T01:13:28;20.00;;;11.67;;
19231;SDS011;9750;48.730;10.294;2024-01-15T01:15:56;20.47;;;11.67;;
19231;SDS011;9750;48.730;10.294;2024-01-15T01:18:23;21.13;;;12.07;;
19231;SDS011;9750;48.730;10.294;2024-01-15T01:20:50;23.03;;;12.83;;
19231;SDS011;9750;48.730;10.294;2024-01-15T01:23:17;18.73;;;11.80;;
19231;SDS011;9750;48.730;10.294;2024-01-15T01:25:46;24.50;;;13.90;;
19231;SDS011;9750;48.730;10.294;2024-01-15T01:28:13;20.27;;;12.03;;
19231;SDS011;9750;48.730;10.294;2024-01-15T01:30:40;20.80;;;12.37;;
19231;SDS011;9750;48.730;10.294;2024-01-15T01:33:08;22.17;;;11.40;;
19231;SDS011;9750;48.730;10.294;2024-01-15T01:35:35;23.27;;;13.50;;
19231;SDS011;9750;48.730;10.294;2024-01-15T01:38:02;20.70;;;12.20;;
19231;SDS011;9750;48.730;10.294;2024-01-15T01:40:30;19.87;;;12.10;;
19231;SDS011;9750;48.730;10.294;2024-01-15T01:42:58;24.10;;;13.37;;
19231;SDS011;9750;48.730;10.294;2024-01-15T01:45:26;18.23;;;11.13;;
19231;SDS011;9750;48.730;10.294;2024-01-15T01:47:53;19.60;;;11.50;;
19231;SDS011;9750;48.730;10.294;2024-01-15T01:50:20;22.23;;;11.77;;
19231;SDS011;9750;48.730;10.294;2024-01-15T01:52:48;19.50;;;11.30;;
19231;SDS011;9750;48.730;10.294;2024-01-15T01:55:16;20.83;;;11.93;;
19231;SDS011;9750;48.730;10.294;2024-01-15T01:57:44;20.77;;;11.53;;
19231;SDS011;9750;48.730;10.294;2024-01-15T02:00:13;22.07;;;11.90;;
19231;SDS011;9750;48.730;10.294;2024-01-15T02:02:41;16.97;;;10.60;;
19231;SDS011;9750;48.730;10.294;2024-01-15T02:05:09;19.63;;;12.00;;
19231;SDS011;9750;48.730;10.294;2024-01-15T02:07:38;17.20;;;10.73;;
19231;SDS011;9750;48.730;10.294;2024-01-15T02:10:06;22.73;;;12.33;;
19231;SDS011;9750;48.730;10.294;2024-01-15T02:12:34;17.07;;;10.57;;
19231;SDS011;9750;48.730;10.294;2024-01-15T02:15:02;19.30;;;10.53;;
19231;SDS011;9750;48.730;10.294;2024-01-15T02:17:30;16.30;;;9.80;;
19231;SDS011;9750;48.730;10.294;2024-01-15T02:19:58;16.53;;;9.83;;
19231;SDS011;9750;48.730;10.294;2024-01-15T02:22:25;18.20;;;10.70;;
19231;SDS011;9750;48.730;10.294;2024-01-15T02:24:54;16.90;;;10.23;;
19231;SDS011;9750;48.730;10.294;2024-01-15T02:27:21;15.67;;;9.63;;
19231;SDS011;9750;48.730;10.294;2024-01-15T02:29:48;18.77;;;10.90;;
19231;SDS011;9750;48.730;10.294;2024-01-15T02:32:16;14.47;;;9.53;;
19231;SDS011;9750;48.730;10.294;2024-01-15T02:34:43;17.43;;;10.37;;
19231;SDS011;9750;48.730;10.294;2024-01-15T02:37:10;16.63;;;10.33;;
19231;SDS011;9750;48.730;10.294;2024-01-15T02:39:37;14.57;;;9.73;;
19231;SDS011;9750;48.730;10.294;2024-01-15T02:42:06;16.63;;;9.90;;
19231;SDS011;9750;48.730;10.294;2024-01-15T02:44:33;16.07;;;9.43;;
19231;SDS011;9750;48.730;10.294;2024-01-15T02:47:00;16.83;;;10.33;;
19231;SDS011;9750;48.730;10.294;2024-01-15T02:49:27;14.23;;;9.53;;
19231;SDS011;9750;48.730;10.294;2024-01-15T02:51:54;14.33;;;9.00;;
19231;SDS011;9750;48.730;10.294;2024-01-15T02:54:21;17.17;;;9.67;;
19231;SDS011;9750;48.730;10.294;2024-01-15T02:56:49;14.37;;;9.37;;
19231;SDS011;9750;48.730;10.294;2024-01-15T02:59:17;14.17;;;9.13;;
19231;SDS011;9750;48.730;10.294;2024-01-15T03:01:45;15.97;;;9.00;;
19231;SDS011;9750;48.730;10.294;2024-01-15T03:04:12;13.60;;;8.73;;
19231;SDS011;9750;48.730;10.294;2024-01-15T03:06:39;15.63;;;8.67;;
19231;SDS011;9750;48.730;10.294;2024-01-15T03:09:06;12.13;;;8.10;;
19231;SDS011;9750;48.730;10.294;2024-01-15T03:11:36;11.97;;;7.63;;
19231;SDS011;9750;48.730;10.294;2024-01-15T03:14:04;14.93;;;8.57;;
19231;SDS011;9750;48.730;10.294;2024-01-15T03:16:33;12.33;;;8.07;;
19231;SDS011;9750;48.730;10.294;2024-01-15T03:19:00;12.20;;;7.63;;
19231;SDS011;9750;48.730;10.294;2024-01-15T03:21:28;11.93;;;7.37;;
19231;SDS011;9750;48.730;10.294;2024-01-15T03:23:55;11.10;;;6.97;;
19231;SDS011;9750;48.730;10.294;2024-01-15T03:26:22;12.70;;;7.77;;
19231;SDS011;9750;48.730;10.294;2024-01-15T03:28:49;10.47;;;7.20;;
19231;SDS011;9750;48.730;10.294;2024-01-15T03:31:17;11.33;;;6.97;;
19231;SDS011;9750;48.730;10.294;2024-01-15T03:33:45;13.10;;;7.77;;
19231;SDS011;9750;48.730;10.294;2024-01-15T03:36:12;10.10;;;7.03;;
19231;SDS011;9750;48.730;10.294;2024-01-15T03:38:40;13.83;;;8.10;;
19231;SDS011;9750;48.730;10.294;2024-01-15T03:41:08;11.43;;;7.33;;
19231;SDS011;9750;48.730;10.294;2024-01-15T03:43:35;12.83;;;6.97;;
19231;SDS011;9750;48.730;10.294;2024-01-15T03:46:03;10.90;;;7.20;;
19231;SDS011;9750;48.730;10.294;2024-01-15T03:48:30;11.07;;;7.00;;
19231;SDS011;9750;48.730;10.294;2024-01-15T03:50:59;12.10;;;7.63;;
19231;SDS011;9750;48.730;10.294;2024-01-15T03:53:26;10.57;;;6.53;;
19231;SDS011;9750;48.730;10.294;2024-01-15T03:55:54;10.27;;;7.30;;
19231;SDS011;9750;48.730;10.294;2024-01-15T03:58:21;11.50;;;7.37;;
19231;SDS011;9750;48.730;10.294;2024-01-15T04:00:48;10.37;;;7.20;;
19231;SDS011;9750;48.730;10.294;2024-01-15T04:03:15;10.83;;;7.17;;
19231;SDS011;9750;48.730;10.294;2024-01-15T04:05:43;12.07;;;8.00;;
19231;SDS011;9750;48.730;10.294;2024-01-15T04:08:12;11.03;;;7.57;;
19231;SDS011;9750;48.730;10.294;2024-01-15T04:10:39;12.03;;;7.03;;
19231;SDS011;9750;48.730;10.294;2024-01-15T04:13:06;11.13;;;6.93;;
19231;SDS011;9750;48.730;10.294;2024-01-15T04:15:34;12.03;;;7.67;;
19231;SDS011;9750;48.730;10.294;2024-01-15T04:18:02;11.47;;;7.47;;
19231;SDS011;9750;48.730;10.294;2024-01-15T04:20:29;11.97;;;7.53;;
19231;SDS011;9750;48.730;10.294;2024-01-15T04:22:56;10.90;;;6.60;;
19231;SDS011;9750;48.730;10.294;2024-01-15T04:25:28;10.27;;;7.13;;
19231;SDS011;9750;48.730;10.294;2024-01-15T04:27:55;8.50;;;6.27;;
19231;SDS011;9750;48.730;10.294;2024-01-15T04:30:22;11.77;;;7.60;;
19231;SDS011;9750;48.730;10.294;2024-01-15T04:32:50;14.33;;;8.10;;
19231;SDS011;9750;48.730;10.294;2024-01-15T04:35:17;13.70;;;7.50;;
19231;SDS011;9750;48.730;10.294;2024-01-15T04:37:44;13.87;;;7.47;;
19231;SDS011;9750;48.730;10.294;2024-01-15T04:40:12;12.20;;;6.90;;
19231;SDS011;9750;48.730;10.294;2024-01-15T04:42:41;10.40;;;6.73;;
19231;SDS011;9750;48.730;10.294;2024-01-15T04:45:10;11.83;;;7.53;;
19231;SDS011;9750;48.730;10.294;2024-01-15T04:47:38;11.53;;;7.10;;
19231;SDS011;9750;48.730;10.294;2024-01-15T04:50:06;10.10;;;6.67;;
19231;SDS011;9750;48.730;10.294;2024-01-15T04:52:34;11.13;;;6.50;;
19231;SDS011;9750;48.730;10.294;2024-01-15T04:55:01;10.30;;;6.63;;
19231;SDS011;9750;48.730;10.294;2024-01-15T04:57:28;11.27;;;7.17;;
19231;SDS011;9750;48.730;10.294;2024-01-15T04:59:57;11.50;;;7.07;;
19231;SDS011;9750;48.730;10.294;2024-01-15T05:02:24;12.40;;;7.37;;
19231;SDS011;9750;48.730;10.294;2024-01-15T05:04:51;12.07;;;7.20;;
19231;SDS011;9750;48.730;10.294;2024-01-15T05:07:18;11.50;;;6.77;;
19231;SDS011;9750;48.730;10.294;2024-01-15T05:09:46;11.67;;;7.33;;
19231;SDS011;9750;48.730;10.294;2024-01-15T05:12:13;12.80;;;7.77;;
19231;SDS011;9750;48.730;10.294;2024-01-15T05:14:40;13.33;;;7.57;;
19231;SDS011;9750;48.730;10.294;2024-01-15T05:17:09;14.47;;;8.17;;
19231;SDS011;9750;48.730;10.294;2024-01-15T05:19:36;11.27;;;6.80;;
19231;SDS011;9750;48.730;10.294;2024-01-15T05:22:03;15.67;;;8.30;;
19231;SDS011;9750;48.730;10.294;2024-01-15T05:24:30;14.53;;;7.47;;
19231;SDS011;9750;48.730;10.294;2024-01-15T05:26:58;12.17;;;6.97;;
19231;SDS011;9750;48.730;10.294;2024-01-15T05:29:25;12.43;;;7.30;;
19231;SDS011;9750;48.730;10.294;2024-01-15T05:31:53;10.37;;;7.03;;
19231;SDS011;9750;48.730;10.294;2024-01-15T05:34:21;12.20;;;7.20;;
19231;SDS011;9750;48.730;10.294;2024-01-15T05:36:49;11.47;;;7.60;;
19231;SDS011;9750;48.730;10.294;2024-01-15T05:39:16;11.37;;;7.40;;
19231;SDS011;9750;48.730;10.294;2024-01-15T05:41:43;12.77;;;7.57;;
19231;SDS011;9750;48.730;10.294;2024-01-15T05:44:11;13.70;;;7.97;;
19231;SDS011;9750;48.730;10.294;2024-01-15T05:46:38;13.00;;;7.97;;
19231;SDS011;9750;48.730;10.294;2024-01-15T05:49:05;13.27;;;7.60;;
19231;SDS011;9750;48.730;10.294;2024-01-15T05:51:34;12.60;;;9.27;;
19231;SDS011;9750;48.730;10.294;2024-01-15T05:54:01;11.37;;;7.37;;
19231;SDS011;9750;48.730;10.294;2024-01-15T05:56:28;14.47;;;8.67;;
19231;SDS011;9750;48.730;10.294;2024-01-15T05:58:55;12.33;;;7.47;;
19231;SDS011;9750;48.730;10.294;2024-01-15T06:01:23;15.70;;;7.97;;
19231;SDS011;9750;48.730;10.294;2024-01-15T06:03:50;14.07;;;7.83;;
19231;SDS011;9750;48.730;10.294;2024-01-15T06:06:17;13.93;;;7.33;;
19231;SDS011;9750;48.730;10.294;2024-01-15T06:08:46;11.80;;;7.43;;
19231;SDS011;9750;48.730;10.294;2024-01-15T06:11:13;11.63;;;7.27;;
19231;SDS011;9750;48.730;10.294;2024-01-15T06:13:40;15.10;;;7.37;;
19231;SDS011;9750;48.730;10.294;2024-01-15T06:16:12;11.33;;;7.57;;
19231;SDS011;9750;48.730;10.294;2024-01-15T06:18:40;10.03;;;6.43;;
19231;SDS011;9750;48.730;10.294;2024-01-15T06:21:08;14.33;;;8.07;;
19231;SDS011;9750;48.730;10.294;2024-01-15T06:23:36;13.77;;;9.37;;
19231;SDS011;9750;48.730;10.294;2024-01-15T06:26:05;9.87;;;6.33;;
19231;SDS011;9750;48.730;10.294;2024-01-15T06:28:32;19.87;;;10.23;;
19231;SDS011;9750;48.730;10.294;2024-01-15T06:30:59;11.13;;;7.40;;
19231;SDS011;9750;48.730;10.294;2024-01-15T06:33:26;12.97;;;7.60;;
19231;SDS011;9750;48.730;10.294;2024-01-15T06:35:54;12.67;;;7.57;;
19231;SDS011;9750;48.730;10.294;2024-01-15T06:38:21;12.23;;;6.90;;
19231;SDS011;9750;48.730;10.294;2024-01-15T06:40:50;12.20;;;7.20;;
19231;SDS011;9750;48.730;10.294;2024-01-15T06:43:19;11.53;;;7.50;;
19231;SDS011;9750;48.730;10.294;2024-01-15T06:45:46;12.13;;;7.67;;
19231;SDS011;9750;48.730;10.294;2024-01-15T06:48:13;10.83;;;6.53;;
19231;SDS011;9750;48.730;10.294;2024-01-15T06:50:41;10.33;;;7.07;;
19231;SDS011;9750;48.730;10.294;2024-01-15T06:53:08;12.87;;;7.90;;
19231;SDS011;9750;48.730;10.294;2024-01-15T06:55:36;10.00;;;6.80;;
19231;SDS011;9750;48.730;10.294;2024-01-15T06:58:04;15.63;;;8.10;;
19231;SDS011;9750;48.730;10.294;2024-01-15T07:00:32;12.10;;;7.40;;
19231;SDS011;9750;48.730;10.294;2024-01-15T07:03:00;10.07;;;6.23;;
19231;SDS011;9750;48.730;10.294;2024-01-15T07:05:27;10.30;;;6.87;;
19231;SDS011;9750;48.730;10.294;2024-01-15T07:07:55;10.53;;;6.80;;
19231;SDS011;9750;48.730;10.294;2024-01-15T07:10:22;10.87;;;6.87;;
19231;SDS011;9750;48.730;10.294;2024-01-15T07:12:49;11.40;;;6.90;;
19231;SDS011;9750;48.730;10.294;2024-01-15T07:15:17;9.63;;;7.13;;
19231;SDS011;9750;48.730;10.294;2024-01-15T07:17:45;9.17;;;6.53;;
19231;SDS011;9750;48.730;10.294;2024-01-15T07:20:12;10.67;;;6.97;;
19231;SDS011;9750;48.730;10.294;2024-01-15T07:22:40;11.27;;;6.73;;
19231;SDS011;9750;48.730;10.294;2024-01-15T07:25:08;12.30;;;7.27;;
19231;SDS011;9750;48.730;10.294;2024-01-15T07:27:35;10.63;;;7.00;;
19231;SDS011;9750;48.730;10.294;2024-01-15T07:30:02;12.77;;;8.30;;
19231;SDS011;9750;48.730;10.294;2024-01-15T07:32:31;9.10;;;6.40;;
19231;SDS011;9750;48.730;10.294;2024-01-15T07:35:00;14.53;;;8.63;;
19231;SDS011;9750;48.730;10.294;2024-01-15T07:37:27;9.60;;;7.10;;
19231;SDS011;9750;48.730;10.294;2024-01-15T07:39:54;9.67;;;6.90;;
19231;SDS011;9750;48.730;10.294;2024-01-15T07:42:22;11.33;;;7.23;;
19231;SDS011;9750;48.730;10.294;2024-01-15T07:44:49;9.77;;;6.77;;
19231;SDS011;9750;48.730;10.294;2024-01-15T07:47:16;11.20;;;7.40;;
19231;SDS011;9750;48.730;10.294;2024-01-15T07:49:44;10.87;;;6.83;;
19231;SDS011;9750;48.730;10.294;2024-01-15T07:52:12;8.73;;;6.23;;
19231;SDS011;9750;48.730;10.294;2024-01-15T07:54:40;11.67;;;7.07;;
19231;SDS011;9750;48.730;10.294;2024-01-15T07:57:07;10.43;;;6.30;;
19231;SDS011;9750;48.730;10.294;2024-01-15T07:59:34;12.47;;;7.93;;
19231;SDS011;9750;48.730;10.294;2024-01-15T08:02:02;8.57;;;6.40;;
19231;SDS011;9750;48.730;10.294;2024-01-15T08:04:29;10.23;;;7.10;;
19231;SDS011;9750;48.730;10.294;2024-01-15T08:06:57;8.03;;;6.03;;
19231;SDS011;9750;48.730;10.294;2024-01-15T08:09:25;9.77;;;6.60;;
19231;SDS011;9750;48.730;10.294;2024-01-15T08:11:52;11.10;;;6.93;;
19231;SDS011;9750;48.730;10.294;2024-01-15T08:14:20;9.23;;;5.57;;
19231;SDS011;9750;48.730;10.294;2024-01-15T08:16:47;10.90;;;6.77;;
19231;SDS011;9750;48.730;10.294;2024-01-15T08:19:14;8.53;;;6.10;;
19231;SDS011;9750;48.730;10.294;2024-01-15T08:21:41;6.97;;;5.20;;
19231;SDS011;9750;48.730;10.294;2024-01-15T08:24:09;7.33;;;5.80;;
19231;SDS011;9750;48.730;10.294;2024-01-15T08:26:37;8.23;;;5.30;;
19231;SDS011;9750;48.730;10.294;2024-01-15T08:29:05;6.93;;;4.60;;
19231;SDS011;9750;48.730;10.294;2024-01-15T08:31:32;9.07;;;5.83;;
19231;SDS011;9750;48.730;10.294;2024-01-15T08:33:59;6.93;;;4.60;;
19231;SDS011;9750;48.730;10.294;2024-01-15T08:36:27;7.40;;;4.93;;
19231;SDS011;9750;48.730;10.294;2024-01-15T08:38:56;8.03;;;5.00;;
19231;SDS011;9750;48.730;10.294;2024-01-15T08:41:23;9.07;;;5.70;;
19231;SDS011;9750;48.730;10.294;2024-01-15T08:43:52;8.20;;;5.20;;
19231;SDS011;9750;48.730;10.294;2024-01-15T08:46:19;8.03;;;5.97;;
19231;SDS011;9750;48.730;10.294;2024-01-15T08:48:46;7.87;;;5.57;;
19231;SDS011;9750;48.730;10.294;2024-01-15T08:51:13;8.37;;;5.47;;
19231;SDS011;9750;48.730;10.294;2024-01-15T08:53:41;8.73;;;5.77;;
19231;SDS011;9750;48.730;10.294;2024-01-15T08:56:09;8.07;;;5.30;;
19231;SDS011;9750;48.730;10.294;2024-01-15T08:58:36;8.07;;;4.67;;
19231;SDS011;9750;48.730;10.294;2024-01-15T09:01:05;7.97;;;5.27;;
19231;SDS011;9750;48.730;10.294;2024-01-15T09:03:32;10.07;;;5.57;;
19231;SDS011;9750;48.730;10.294;2024-01-15T09:09:00;8.30;;;5.87;;
19231;SDS011;9750;48.730;10.294;2024-01-15T09:11:27;8.03;;;5.70;;
19231;SDS011;9750;48.730;10.294;2024-01-15T09:13:54;10.37;;;6.37;;
19231;SDS011;9750;48.730;10.294;2024-01-15T09:16:23;7.77;;;5.70;;
19231;SDS011;9750;48.730;10.294;2024-01-15T09:18:51;9.13;;;6.00;;
19231;SDS011;9750;48.730;10.294;2024-01-15T09:21:18;10.17;;;6.37;;
19231;SDS011;9750;48.730;10.294;2024-01-15T09:23:45;7.63;;;5.40;;
19231;SDS011;9750;48.730;10.294;2024-01-15T09:26:12;8.27;;;5.60;;
19231;SDS011;9750;48.730;10.294;2024-01-15T09:28:40;9.57;;;5.50;;
19231;SDS011;9750;48.730;10.294;2024-01-15T09:31:07;9.30;;;6.17;;
19231;SDS011;9750;48.730;10.294;2024-01-15T09:33:35;9.17;;;5.73;;
19231;SDS011;9750;48.730;10.294;2024-01-15T09:36:03;10.17;;;6.27;;
19231;SDS011;9750;48.730;10.294;2024-01-15T09:38:31;8.60;;;5.63;;
19231;SDS011;9750;48.730;10.294;2024-01-15T09:40:58;13.87;;;8.70;;
19231;SDS011;9750;48.730;10.294;2024-01-15T09:43:26;10.80;;;7.53;;
19231;SDS011;9750;48.730;10.294;2024-01-15T09:45:53;10.63;;;6.13;;
19231;SDS011;9750;48.730;10.294;2024-01-15T09:48:21;7.27;;;5.43;;
19231;SDS011;9750;48.730;10.294;2024-01-15T09:50:50;9.80;;;5.37;;
19231;SDS011;9750;48.730;10.294;2024-01-15T09:53:18;11.53;;;6.63;;
19231;SDS011;9750;48.730;10.294;2024-01-15T09:55:46;14.33;;;8.00;;
19231;SDS011;9750;48.730;10.294;2024-01-15T09:58:16;7.47;;;5.30;;
19231;SDS011;9750;48.730;10.294;2024-01-15T10:00:43;15.93;;;9.93;;
19231;SDS011;9750;48.730;10.294;2024-01-15T10:03:11;8.47;;;5.57;;
19231;SDS011;9750;48.730;10.294;2024-01-15T10:05:39;9.87;;;5.53;;
19231;SDS011;9750;48.730;10.294;2024-01-15T10:08:08;8.70;;;5.80;;
19231;SDS011;9750;48.730;10.294;2024-01-15T10:10:36;13.40;;;7.97;;
19231;SDS011;9750;48.730;10.294;2024-01-15T10:13:03;10.07;;;6.10;;
19231;SDS011;9750;48.730;10.294;2024-01-15T10:15:47;9.27;;;6.93;;
19231;SDS011;9750;48.730;10.294;2024-01-15T10:18:15;11.90;;;8.63;;
19231;SDS011;9750;48.730;10.294;2024-01-15T10:20:42;13.50;;;8.20;;
19231;SDS011;9750;48.730;10.294;2024-01-15T10:23:11;10.43;;;6.10;;
19231;SDS011;9750;48.730;10.294;2024-01-15T10:25:38;9.73;;;6.20;;
19231;SDS011;9750;48.730;10.294;2024-01-15T10:28:08;13.60;;;7.50;;
19231;SDS011;9750;48.730;10.294;2024-01-15T10:30:35;10.17;;;6.67;;
19231;SDS011;9750;48.730;10.294;2024-01-15T10:33:02;7.07;;;5.60;;
19231;SDS011;9750;48.730;10.294;2024-01-15T10:35:30;16.70;;;10.03;;
19231;SDS011;9750;48.730;10.294;2024-01-15T10:37:59;14.77;;;9.00;;
19231;SDS011;9750;48.730;10.294;2024-01-15T10:40:28;9.23;;;6.20;;
19231;SDS011;9750;48.730;10.294;2024-01-15T10:42:56;7.30;;;5.33;;
19231;SDS011;9750;48.730;10.294;2024-01-15T10:45:23;10.40;;;6.23;;
19231;SDS011;9750;48.730;10.294;2024-01-15T10:47:51;9.10;;;6.07;;
19231;SDS011;9750;48.730;10.294;2024-01-15T10:50:19;5.43;;;4.50;;
19231;SDS011;9750;48.730;10.294;2024-01-15T10:52:47;10.90;;;5.20;;
19231;SDS011;9750;48.730;10.294;2024-01-15T10:55:15;8.23;;;4.90;;
19231;SDS011;9750;48.730;10.294;2024-01-15T10:57:44;7.83;;;5.07;;
19231;SDS011;9750;48.730;10.294;2024-01-15T11:00:14;6.57;;;5.03;;
19231;SDS011;9750;48.730;10.294;2024-01-15T11:02:41;9.27;;;5.13;;
19231;SDS011;9750;48.730;10.294;2024-01-15T11:08:41;6.07;;;4.80;;
19231;SDS011;9750;48.730;10.294;2024-01-15T11:11:09;6.07;;;4.77;;
19231;SDS011;9750;48.730;10.294;2024-01-15T11:13:41;8.90;;;4.77;;
19231;SDS011;9750;48.730;10.294;2024-01-15T11:16:10;7.80;;;5.20;;
19231;SDS011;9750;48.730;10.294;2024-01-15T11:18:40;6.57;;;4.50;;
19231;SDS011;9750;48.730;10.294;2024-01-15T11:21:20;6.33;;;4.77;;
19231;SDS011;9750;48.730;10.294;2024-01-15T11:23:53;5.67;;;4.23;;
19231;SDS011;9750;48.730;10.294;2024-01-15T11:26:29;6.40;;;4.37;;
19231;SDS011;9750;48.730;10.294;2024-01-15T11:28:59;6.37;;;4.17;;
19231;SDS011;9750;48.730;10.294;2024-01-15T11:31:28;6.10;;;4.53;;
19231;SDS011;9750;48.730;10.294;2024-01-15T11:33:56;5.83;;;4.00;;
19231;SDS011;9750;48.730;10.294;2024-01-15T11:39:40;3.87;;;3.30;;
19231;SDS011;9750;48.730;10.294;2024-01-15T11:42:09;6.43;;;4.00;;
19231;SDS011;9750;48.730;10.294;2024-01-15T11:44:39;6.20;;;4.47;;
19231;SDS011;9750;48.730;10.294;2024-01-15T11:47:08;6.40;;;5.80;;
19231;SDS011;9750;48.730;10.294;2024-01-15T11:49:58;4.37;;;3.70;;
19231;SDS011;9750;48.730;10.294;2024-01-15T11:52:30;5.17;;;3.80;;
19231;SDS011;9750;48.730;10.294;2024-01-15T11:55:01;4.47;;;3.20;;
19231;SDS011;9750;48.730;10.294;2024-01-15T11:57:37;4.33;;;3.50;;
19231;SDS011;9750;48.730;10.294;2024-01-15T12:00:12;6.40;;;3.90;;
19231;SDS011;9750;48.730;10.294;2024-01-15T12:02:40;6.17;;;3.40;;
19231;SDS011;9750;48.730;10.294;2024-01-15T12:05:08;6.07;;;4.50;;
19231;SDS011;9750;48.730;10.294;2024-01-15T12:07:38;10.00;;;7.60;;
19231;SDS011;9750;48.730;10.294;2024-01-15T12:10:08;5.57;;;4.20;;
19231;SDS011;9750;48.730;10.294;2024-01-15T12:12:42;5.57;;;4.50;;
19231;SDS011;9750;48.730;10.294;2024-01-15T12:15:35;5.13;;;4.63;;
19231;SDS011;9750;48.730;10.294;2024-01-15T12:18:03;7.93;;;4.83;;
19231;SDS011;9750;48.730;10.294;2024-01-15T12:20:31;10.07;;;7.03;;
19231;SDS011;9750;48.730;10.294;2024-01-15T12:22:59;6.80;;;4.67;;
19231;SDS011;9750;48.730;10.294;2024-01-15T12:28:12;5.77;;;4.60;;
19231;SDS011;9750;48.730;10.294;2024-01-15T12:30:41;7.27;;;4.80;;
19231;SDS011;9750;48.730;10.294;2024-01-15T12:33:09;6.03;;;4.30;;
19231;SDS011;9750;48.730;10.294;2024-01-15T12:35:37;7.07;;;4.63;;
19231;SDS011;9750;48.730;10.294;2024-01-15T12:38:04;5.67;;;4.70;;
19231;SDS011;9750;48.730;10.294;2024-01-15T12:40:31;7.03;;;4.23;;
19231;SDS011;9750;48.730;10.294;2024-01-15T12:42:59;6.77;;;4.23;;
19231;SDS011;9750;48.730;10.294;2024-01-15T12:45:26;6.27;;;4.37;;
19231;SDS011;9750;48.730;10.294;2024-01-15T12:47:55;5.40;;;4.90;;
19231;SDS011;9750;48.730;10.294;2024-01-15T12:50:24;9.93;;;9.10;;
19231;SDS011;9750;48.730;10.294;2024-01-15T12:52:51;10.17;;;7.67;;
19231;SDS011;9750;48.730;10.294;2024-01-15T12:55:19;5.80;;;4.80;;
19231;SDS011;9750;48.730;10.294;2024-01-15T12:57:46;5.73;;;4.17;;
19231;SDS011;9750;48.730;10.294;2024-01-15T13:00:15;6.53;;;4.63;;
19231;SDS011;9750;48.730;10.294;2024-01-15T13:02:42;5.60;;;3.60;;
19231;SDS011;9750;48.730;10.294;2024-01-15T13:05:11;5.43;;;4.53;;
19231;SDS011;9750;48.730;10.294;2024-01-15T13:07:39;6.13;;;4.17;;
19231;SDS011;9750;48.730;10.294;2024-01-15T13:10:06;5.47;;;4.37;;
19231;SDS011;9750;48.730;10.294;2024-01-15T13:12:35;7.00;;;4.30;;
19231;SDS011;9750;48.730;10.294;2024-01-15T13:15:03;5.37;;;4.23;;
19231;SDS011;9750;48.730;10.294;2024-01-15T13:17:30;5.50;;;4.63;;
19231;SDS011;9750;48.730;10.294;2024-01-15T13:19:58;4.03;;;3.63;;
19231;SDS011;9750;48.730;10.294;2024-01-15T13:22:26;5.57;;;4.33;;
19231;SDS011;9750;48.730;10.294;2024-01-15T13:24:57;5.03;;;4.17;;
19231;SDS011;9750;48.730;10.294;2024-01-15T13:27:24;4.07;;;3.67;;
19231;SDS011;9750;48.730;10.294;2024-01-15T13:29:51;5.70;;;4.33;;
19231;SDS011;9750;48.730;10.294;2024-01-15T13:32:22;5.00;;;4.50;;
19231;SDS011;9750;48.730;10.294;2024-01-15T13:34:52;4.27;;;3.87;;
19231;SDS011;9750;48.730;10.294;2024-01-15T13:37:19;5.20;;;4.27;;
19231;SDS011;9750;48.730;10.294;2024-01-15T13:39:48;5.50;;;4.63;;
19231;SDS011;9750;48.730;10.294;2024-01-15T13:42:16;6.87;;;4.70;;
19231;SDS011;9750;48.730;10.294;2024-01-15T13:44:44;6.00;;;4.57;;
19231;SDS011;9750;48.730;10.294;2024-01-15T13:47:11;4.70;;;4.27;;
19231;SDS011;9750;48.730;10.294;2024-01-15T13:49:38;5.90;;;4.03;;
19231;SDS011;9750;48.730;10.294;2024-01-15T13:52:06;7.73;;;4.43;;
19231;SDS011;9750;48.730;10.294;2024-01-15T13:54:33;5.37;;;3.73;;
19231;SDS011;9750;48.730;10.294;2024-01-15T13:57:02;4.67;;;3.67;;
19231;SDS011;9750;48.730;10.294;2024-01-15T13:59:31;7.70;;;4.30;;
19231;SDS011;9750;48.730;10.294;2024-01-15T14:01:58;5.97;;;3.57;;
19231;SDS011;9750;48.730;10.294;2024-01-15T14:04:25;6.83;;;4.10;;
19231;SDS011;9750;48.730;10.294;2024-01-15T14:06:53;4.10;;;3.20;;
19231;SDS011;9750;48.730;10.294;2024-01-15T14:09:20;5.63;;;4.40;;
19231;SDS011;9750;48.730;10.294;2024-01-15T14:11:48;4.50;;;3.80;;
19231;SDS011;9750;48.730;10.294;2024-01-15T14:14:17;6.03;;;4.60;;
19231;SDS011;9750;48.730;10.294;2024-01-15T14:16:46;4.63;;;3.80;;
19231;SDS011;9750;48.730;10.294;2024-01-15T14:19:14;4.77;;;4.00;;
19231;SDS011;9750;48.730;10.294;2024-01-15T14:21:41;4.10;;;3.53;;
19231;SDS011;9750;48.730;10.294;2024-01-15T14:24:08;5.83;;;4.20;;
19231;SDS011;9750;48.730;10.294;2024-01-15T14:26:36;6.27;;;3.93;;
19231;SDS011;9750;48.730;10.294;2024-01-15T14:29:03;6.10;;;4.07;;
19231;SDS011;9750;48.730;10.294;2024-01-15T14:31:32;4.67;;;3.33;;
19231;SDS011;9750;48.730;10.294;2024-01-15T14:33:59;6.67;;;4.30;;
19231;SDS011;9750;48.730;10.294;2024-01-15T14:36:28;4.53;;;3.43;;
19231;SDS011;9750;48.730;10.294;2024-01-15T14:38:55;5.00;;;4.00;;
19231;SDS011;9750;48.730;10.294;2024-01-15T14:41:22;4.43;;;3.70;;
19231;SDS011;9750;48.730;10.294;2024-01-15T14:43:50;5.87;;;5.23;;
19231;SDS011;9750;48.730;10.294;2024-01-15T14:46:17;3.60;;;3.30;;
19231;SDS011;9750;48.730;10.294;2024-01-15T14:48:45;4.43;;;3.77;;
19231;SDS011;9750;48.730;10.294;2024-01-15T14:51:13;3.73;;;3.17;;
19231;SDS011;9750;48.730;10.294;2024-01-15T14:53:40;4.03;;;3.60;;
19231;SDS011;9750;48.730;10.294;2024-01-15T14:56:08;3.77;;;3.30;;